Terminal Aerodrome Forecast
Issued by NWS

Home | Current Version | Previous Version | Text Only | Print | Product List | Glossary On
Versions: 1 2 3 4 5 6 7 8 9 10 11 12 13
564
FTPA31 PHFO 212321
TAFHOG
TAF
PHOG 212321Z 2200/2224 05018G26KT P6SM VCSH SCT025 SCT045 BKN070
     FM220600 05012KT P6SM VCSH FEW025 SCT045 SCT070
     FM221200 VRB04KT P6SM FEW025 SCT045
     FM222100 05012KT P6SM FEW045
      AMD LTD TO VIS AND WIND 2209/2216=

USA.gov is the U.S. government's official web portal to all federal, state and local government web resources and services.